sensor_id;sensor_type;location;lat;lon;timestamp;P1;durP1;ratioP1;P2;durP2;ratioP2
9834;SDS011;4956;50.996;13.716;2023-02-28T00:00:12;6.13;;;4.28;;
9834;SDS011;4956;50.996;13.716;2023-02-28T00:03:33;6.85;;;4.35;;
9834;SDS011;4956;50.996;13.716;2023-02-28T00:06:55;8.93;;;4.53;;
9834;SDS011;4956;50.996;13.716;2023-02-28T00:10:16;8.35;;;4.70;;
9834;SDS011;4956;50.996;13.716;2023-02-28T00:13:41;7.95;;;5.00;;
9834;SDS011;4956;50.996;13.716;2023-02-28T00:17:03;9.95;;;5.40;;
9834;SDS011;4956;50.996;13.716;2023-02-28T00:20:24;8.60;;;5.33;;
9834;SDS011;4956;50.996;13.716;2023-02-28T00:23:44;8.57;;;5.28;;
9834;SDS011;4956;50.996;13.716;2023-02-28T00:27:04;7.97;;;4.57;;
9834;SDS011;4956;50.996;13.716;2023-02-28T00:30:25;8.75;;;5.07;;
9834;SDS011;4956;50.996;13.716;2023-02-28T00:33:45;7.95;;;5.05;;
9834;SDS011;4956;50.996;13.716;2023-02-28T00:37:09;8.43;;;4.65;;
9834;SDS011;4956;50.996;13.716;2023-02-28T00:40:29;8.63;;;5.30;;
9834;SDS011;4956;50.996;13.716;2023-02-28T00:43:49;7.30;;;4.82;;
9834;SDS011;4956;50.996;13.716;2023-02-28T00:47:10;7.15;;;4.70;;
9834;SDS011;4956;50.996;13.716;2023-02-28T00:50:30;8.13;;;4.85;;
9834;SDS011;4956;50.996;13.716;2023-02-28T00:53:51;8.82;;;5.35;;
9834;SDS011;4956;50.996;13.716;2023-02-28T00:57:11;9.55;;;5.10;;
9834;SDS011;4956;50.996;13.716;2023-02-28T01:00:31;7.97;;;4.60;;
9834;SDS011;4956;50.996;13.716;2023-02-28T01:03:51;8.75;;;5.20;;
9834;SDS011;4956;50.996;13.716;2023-02-28T01:07:12;7.38;;;4.63;;
9834;SDS011;4956;50.996;13.716;2023-02-28T01:10:34;8.02;;;5.00;;
9834;SDS011;4956;50.996;13.716;2023-02-28T01:13:58;8.82;;;5.10;;
9834;SDS011;4956;50.996;13.716;2023-02-28T01:17:18;8.45;;;5.25;;
9834;SDS011;4956;50.996;13.716;2023-02-28T01:20:39;7.45;;;5.13;;
9834;SDS011;4956;50.996;13.716;2023-02-28T01:23:59;9.70;;;5.03;;
9834;SDS011;4956;50.996;13.716;2023-02-28T01:27:19;9.55;;;5.25;;
9834;SDS011;4956;50.996;13.716;2023-02-28T01:30:40;13.40;;;5.70;;
9834;SDS011;4956;50.996;13.716;2023-02-28T01:34:00;10.10;;;5.32;;
9834;SDS011;4956;50.996;13.716;2023-02-28T01:37:22;11.80;;;5.88;;
9834;SDS011;4956;50.996;13.716;2023-02-28T01:40:42;11.27;;;5.60;;
9834;SDS011;4956;50.996;13.716;2023-02-28T01:44:06;10.20;;;5.80;;
9834;SDS011;4956;50.996;13.716;2023-02-28T01:47:50;8.32;;;5.22;;
9834;SDS011;4956;50.996;13.716;2023-02-28T01:51:14;10.27;;;5.95;;
9834;SDS011;4956;50.996;13.716;2023-02-28T01:54:36;9.43;;;5.57;;
9834;SDS011;4956;50.996;13.716;2023-02-28T01:57:58;8.90;;;5.65;;
9834;SDS011;4956;50.996;13.716;2023-02-28T02:01:21;11.65;;;5.75;;
9834;SDS011;4956;50.996;13.716;2023-02-28T02:04:44;9.50;;;5.45;;
9834;SDS011;4956;50.996;13.716;2023-02-28T02:08:12;9.23;;;5.90;;
9834;SDS011;4956;50.996;13.716;2023-02-28T02:11:35;12.48;;;6.30;;
9834;SDS011;4956;50.996;13.716;2023-02-28T02:14:59;9.95;;;5.68;;
9834;SDS011;4956;50.996;13.716;2023-02-28T02:22:20;12.32;;;6.18;;
9834;SDS011;4956;50.996;13.716;2023-02-28T02:29:22;12.00;;;6.30;;
9834;SDS011;4956;50.996;13.716;2023-02-28T02:40:25;10.05;;;6.18;;
9834;SDS011;4956;50.996;13.716;2023-02-28T02:43:51;10.90;;;6.07;;
9834;SDS011;4956;50.996;13.716;2023-02-28T02:47:29;9.75;;;5.65;;
9834;SDS011;4956;50.996;13.716;2023-02-28T02:50:54;10.88;;;6.00;;
9834;SDS011;4956;50.996;13.716;2023-02-28T02:54:17;9.45;;;6.03;;
9834;SDS011;4956;50.996;13.716;2023-02-28T02:57:45;9.98;;;6.00;;
9834;SDS011;4956;50.996;13.716;2023-02-28T03:01:08;10.90;;;6.20;;
9834;SDS011;4956;50.996;13.716;2023-02-28T03:04:36;12.13;;;6.40;;
9834;SDS011;4956;50.996;13.716;2023-02-28T03:08:02;12.50;;;7.03;;
9834;SDS011;4956;50.996;13.716;2023-02-28T03:11:25;10.52;;;6.50;;
9834;SDS011;4956;50.996;13.716;2023-02-28T03:14:55;13.77;;;6.65;;
9834;SDS011;4956;50.996;13.716;2023-02-28T03:18:32;11.95;;;6.70;;
9834;SDS011;4956;50.996;13.716;2023-02-28T03:22:04;12.48;;;6.75;;
9834;SDS011;4956;50.996;13.716;2023-02-28T03:25:44;11.65;;;6.75;;
9834;SDS011;4956;50.996;13.716;2023-02-28T03:29:26;13.18;;;7.05;;
9834;SDS011;4956;50.996;13.716;2023-02-28T03:32:59;11.93;;;7.22;;
9834;SDS011;4956;50.996;13.716;2023-02-28T03:36:26;11.88;;;6.97;;
9834;SDS011;4956;50.996;13.716;2023-02-28T03:39:52;11.38;;;6.85;;
9834;SDS011;4956;50.996;13.716;2023-02-28T03:43:21;11.93;;;6.72;;
9834;SDS011;4956;50.996;13.716;2023-02-28T03:46:47;11.55;;;6.78;;
9834;SDS011;4956;50.996;13.716;2023-02-28T03:50:13;11.77;;;7.18;;
9834;SDS011;4956;50.996;13.716;2023-02-28T03:53:48;13.52;;;7.30;;
9834;SDS011;4956;50.996;13.716;2023-02-28T04:00:58;14.95;;;7.20;;
9834;SDS011;4956;50.996;13.716;2023-02-28T04:04:27;13.18;;;7.40;;
9834;SDS011;4956;50.996;13.716;2023-02-28T04:07:48;13.43;;;7.55;;
9834;SDS011;4956;50.996;13.716;2023-02-28T04:11:16;14.80;;;7.95;;
9834;SDS011;4956;50.996;13.716;2023-02-28T04:14:39;12.95;;;7.60;;
9834;SDS011;4956;50.996;13.716;2023-02-28T04:17:59;13.90;;;7.85;;
9834;SDS011;4956;50.996;13.716;2023-02-28T04:21:20;14.48;;;8.20;;
9834;SDS011;4956;50.996;13.716;2023-02-28T04:24:40;11.48;;;7.53;;
9834;SDS011;4956;50.996;13.716;2023-02-28T04:28:01;14.90;;;8.02;;
9834;SDS011;4956;50.996;13.716;2023-02-28T04:31:21;14.27;;;8.23;;
9834;SDS011;4956;50.996;13.716;2023-02-28T04:34:42;14.35;;;8.13;;
9834;SDS011;4956;50.996;13.716;2023-02-28T04:38:02;13.27;;;7.97;;
9834;SDS011;4956;50.996;13.716;2023-02-28T04:41:22;14.27;;;8.57;;
9834;SDS011;4956;50.996;13.716;2023-02-28T04:44:43;15.98;;;8.90;;
9834;SDS011;4956;50.996;13.716;2023-02-28T04:48:04;14.70;;;8.52;;
9834;SDS011;4956;50.996;13.716;2023-02-28T04:51:24;15.15;;;8.20;;
9834;SDS011;4956;50.996;13.716;2023-02-28T04:54:44;17.20;;;8.82;;
9834;SDS011;4956;50.996;13.716;2023-02-28T04:58:04;15.05;;;8.35;;
9834;SDS011;4956;50.996;13.716;2023-02-28T05:01:26;16.02;;;8.73;;
9834;SDS011;4956;50.996;13.716;2023-02-28T05:04:47;17.25;;;8.60;;
9834;SDS011;4956;50.996;13.716;2023-02-28T05:08:08;16.48;;;8.77;;
9834;SDS011;4956;50.996;13.716;2023-02-28T05:11:31;16.27;;;8.77;;
9834;SDS011;4956;50.996;13.716;2023-02-28T05:14:54;12.82;;;8.30;;
9834;SDS011;4956;50.996;13.716;2023-02-28T05:18:15;15.30;;;8.65;;
9834;SDS011;4956;50.996;13.716;2023-02-28T05:21:36;15.07;;;8.77;;
9834;SDS011;4956;50.996;13.716;2023-02-28T05:25:13;17.30;;;8.73;;
9834;SDS011;4956;50.996;13.716;2023-02-28T05:28:37;15.50;;;8.13;;
9834;SDS011;4956;50.996;13.716;2023-02-28T05:31:57;16.67;;;8.48;;
9834;SDS011;4956;50.996;13.716;2023-02-28T05:35:17;16.60;;;8.73;;
9834;SDS011;4956;50.996;13.716;2023-02-28T05:38:38;17.05;;;10.38;;
9834;SDS011;4956;50.996;13.716;2023-02-28T05:41:58;18.80;;;10.07;;
9834;SDS011;4956;50.996;13.716;2023-02-28T05:45:19;16.50;;;9.23;;
9834;SDS011;4956;50.996;13.716;2023-02-28T05:48:41;15.07;;;8.75;;
9834;SDS011;4956;50.996;13.716;2023-02-28T05:52:02;14.77;;;9.00;;
9834;SDS011;4956;50.996;13.716;2023-02-28T05:55:22;15.68;;;8.50;;
9834;SDS011;4956;50.996;13.716;2023-02-28T05:58:43;15.98;;;9.13;;
9834;SDS011;4956;50.996;13.716;2023-02-28T06:02:03;16.55;;;9.10;;
9834;SDS011;4956;50.996;13.716;2023-02-28T06:05:23;16.75;;;9.82;;
9834;SDS011;4956;50.996;13.716;2023-02-28T06:08:44;17.27;;;9.65;;
9834;SDS011;4956;50.996;13.716;2023-02-28T06:12:05;15.52;;;9.63;;
9834;SDS011;4956;50.996;13.716;2023-02-28T06:15:27;18.48;;;10.30;;
9834;SDS011;4956;50.996;13.716;2023-02-28T06:18:47;14.18;;;8.88;;
9834;SDS011;4956;50.996;13.716;2023-02-28T06:22:07;16.88;;;9.73;;
9834;SDS011;4956;50.996;13.716;2023-02-28T06:25:28;17.85;;;9.82;;
9834;SDS011;4956;50.996;13.716;2023-02-28T06:28:48;16.88;;;9.40;;
9834;SDS011;4956;50.996;13.716;2023-02-28T06:32:08;17.88;;;10.35;;
9834;SDS011;4956;50.996;13.716;2023-02-28T06:35:29;19.25;;;10.77;;
9834;SDS011;4956;50.996;13.716;2023-02-28T06:38:49;22.00;;;11.55;;
9834;SDS011;4956;50.996;13.716;2023-02-28T06:42:14;16.90;;;10.80;;
9834;SDS011;4956;50.996;13.716;2023-02-28T06:45:34;20.40;;;11.98;;
9834;SDS011;4956;50.996;13.716;2023-02-28T06:48:55;19.45;;;11.30;;
9834;SDS011;4956;50.996;13.716;2023-02-28T06:52:15;19.00;;;10.68;;
9834;SDS011;4956;50.996;13.716;2023-02-28T06:55:38;17.20;;;9.85;;
9834;SDS011;4956;50.996;13.716;2023-02-28T06:58:59;17.80;;;9.82;;
9834;SDS011;4956;50.996;13.716;2023-02-28T07:02:19;15.13;;;9.52;;
9834;SDS011;4956;50.996;13.716;2023-02-28T07:05:39;14.60;;;9.23;;
9834;SDS011;4956;50.996;13.716;2023-02-28T07:09:00;19.05;;;10.98;;
9834;SDS011;4956;50.996;13.716;2023-02-28T07:12:20;26.80;;;13.27;;
9834;SDS011;4956;50.996;13.716;2023-02-28T07:15:41;15.43;;;9.32;;
9834;SDS011;4956;50.996;13.716;2023-02-28T07:19:01;15.25;;;9.25;;
9834;SDS011;4956;50.996;13.716;2023-02-28T07:22:21;21.05;;;9.85;;
9834;SDS011;4956;50.996;13.716;2023-02-28T07:25:41;18.27;;;10.15;;
9834;SDS011;4956;50.996;13.716;2023-02-28T07:29:02;17.58;;;9.85;;
9834;SDS011;4956;50.996;13.716;2023-02-28T07:32:22;16.02;;;9.95;;
9834;SDS011;4956;50.996;13.716;2023-02-28T07:35:42;21.42;;;10.75;;
9834;SDS011;4956;50.996;13.716;2023-02-28T07:39:03;17.10;;;10.50;;
9834;SDS011;4956;50.996;13.716;2023-02-28T07:42:24;17.95;;;9.88;;
9834;SDS011;4956;50.996;13.716;2023-02-28T07:45:45;18.45;;;9.55;;
9834;SDS011;4956;50.996;13.716;2023-02-28T07:49:05;14.82;;;8.20;;
9834;SDS011;4956;50.996;13.716;2023-02-28T07:52:26;13.55;;;8.25;;
9834;SDS011;4956;50.996;13.716;2023-02-28T07:55:46;12.15;;;8.35;;
9834;SDS011;4956;50.996;13.716;2023-02-28T07:59:09;14.95;;;8.63;;
9834;SDS011;4956;50.996;13.716;2023-02-28T08:02:29;15.73;;;9.20;;
9834;SDS011;4956;50.996;13.716;2023-02-28T08:05:49;14.18;;;8.35;;
9834;SDS011;4956;50.996;13.716;2023-02-28T08:09:10;12.93;;;8.57;;
9834;SDS011;4956;50.996;13.716;2023-02-28T08:12:31;16.23;;;9.25;;
9834;SDS011;4956;50.996;13.716;2023-02-28T08:15:51;13.80;;;8.63;;
9834;SDS011;4956;50.996;13.716;2023-02-28T08:19:11;12.98;;;8.55;;
9834;SDS011;4956;50.996;13.716;2023-02-28T08:22:32;15.20;;;8.82;;
9834;SDS011;4956;50.996;13.716;2023-02-28T08:25:52;13.65;;;8.35;;
9834;SDS011;4956;50.996;13.716;2023-02-28T08:29:16;16.00;;;8.88;;
9834;SDS011;4956;50.996;13.716;2023-02-28T08:32:36;14.85;;;8.68;;
9834;SDS011;4956;50.996;13.716;2023-02-28T08:35:56;12.30;;;8.15;;
9834;SDS011;4956;50.996;13.716;2023-02-28T08:39:17;16.23;;;8.60;;
9834;SDS011;4956;50.996;13.716;2023-02-28T08:42:37;15.02;;;8.45;;
9834;SDS011;4956;50.996;13.716;2023-02-28T08:45:58;11.97;;;8.10;;
9834;SDS011;4956;50.996;13.716;2023-02-28T08:49:18;14.75;;;9.15;;
9834;SDS011;4956;50.996;13.716;2023-02-28T08:52:38;15.23;;;9.85;;
9834;SDS011;4956;50.996;13.716;2023-02-28T08:56:03;15.90;;;9.10;;
9834;SDS011;4956;50.996;13.716;2023-02-28T08:59:25;16.15;;;8.45;;
9834;SDS011;4956;50.996;13.716;2023-02-28T09:02:45;14.52;;;8.52;;
9834;SDS011;4956;50.996;13.716;2023-02-28T09:06:06;13.68;;;8.65;;
9834;SDS011;4956;50.996;13.716;2023-02-28T09:09:26;14.45;;;8.68;;
9834;SDS011;4956;50.996;13.716;2023-02-28T09:12:46;12.32;;;8.20;;
9834;SDS011;4956;50.996;13.716;2023-02-28T09:16:08;14.00;;;8.57;;
9834;SDS011;4956;50.996;13.716;2023-02-28T09:19:31;12.35;;;8.32;;
9834;SDS011;4956;50.996;13.716;2023-02-28T09:22:51;15.45;;;8.55;;
9834;SDS011;4956;50.996;13.716;2023-02-28T09:26:19;14.48;;;7.82;;
9834;SDS011;4956;50.996;13.716;2023-02-28T09:29:42;11.45;;;7.47;;
9834;SDS011;4956;50.996;13.716;2023-02-28T09:33:02;13.00;;;7.32;;
9834;SDS011;4956;50.996;13.716;2023-02-28T09:36:24;11.75;;;7.78;;
9834;SDS011;4956;50.996;13.716;2023-02-28T09:39:45;13.13;;;8.30;;
9834;SDS011;4956;50.996;13.716;2023-02-28T09:43:05;14.73;;;8.18;;
9834;SDS011;4956;50.996;13.716;2023-02-28T09:50:06;12.02;;;7.35;;
9834;SDS011;4956;50.996;13.716;2023-02-28T09:53:36;13.93;;;8.07;;
9834;SDS011;4956;50.996;13.716;2023-02-28T09:57:01;13.07;;;7.47;;
9834;SDS011;4956;50.996;13.716;2023-02-28T10:00:33;14.40;;;7.97;;
9834;SDS011;4956;50.996;13.716;2023-02-28T10:04:03;12.10;;;7.30;;
9834;SDS011;4956;50.996;13.716;2023-02-28T10:11:05;15.93;;;8.35;;
9834;SDS011;4956;50.996;13.716;2023-02-28T10:14:28;16.13;;;8.85;;
9834;SDS011;4956;50.996;13.716;2023-02-28T10:17:51;13.05;;;8.27;;
9834;SDS011;4956;50.996;13.716;2023-02-28T10:21:17;11.52;;;7.80;;
9834;SDS011;4956;50.996;13.716;2023-02-28T10:24:51;11.98;;;7.63;;
9834;SDS011;4956;50.996;13.716;2023-02-28T10:28:13;17.45;;;8.25;;
9834;SDS011;4956;50.996;13.716;2023-02-28T10:31:35;13.55;;;7.93;;
9834;SDS011;4956;50.996;13.716;2023-02-28T10:34:57;11.73;;;7.90;;
9834;SDS011;4956;50.996;13.716;2023-02-28T10:38:21;13.23;;;7.40;;
9834;SDS011;4956;50.996;13.716;2023-02-28T10:41:47;13.40;;;7.50;;
9834;SDS011;4956;50.996;13.716;2023-02-28T10:45:12;13.32;;;7.72;;
9834;SDS011;4956;50.996;13.716;2023-02-28T10:51:58;12.82;;;7.90;;
9834;SDS011;4956;50.996;13.716;2023-02-28T10:58:59;13.90;;;7.88;;
9834;SDS011;4956;50.996;13.716;2023-02-28T11:02:36;11.45;;;7.93;;
9834;SDS011;4956;50.996;13.716;2023-02-28T11:06:07;14.35;;;8.95;;
9834;SDS011;4956;50.996;13.716;2023-02-28T11:09:38;11.98;;;7.82;;
9834;SDS011;4956;50.996;13.716;2023-02-28T11:12:59;13.82;;;8.15;;
9834;SDS011;4956;50.996;13.716;2023-02-28T11:16:19;14.50;;;9.00;;
9834;SDS011;4956;50.996;13.716;2023-02-28T11:19:44;15.23;;;8.13;;
9834;SDS011;4956;50.996;13.716;2023-02-28T11:23:05;13.18;;;8.63;;
9834;SDS011;4956;50.996;13.716;2023-02-28T11:26:35;14.07;;;8.38;;
9834;SDS011;4956;50.996;13.716;2023-02-28T11:30:00;12.85;;;8.27;;
9834;SDS011;4956;50.996;13.716;2023-02-28T11:33:28;13.68;;;7.97;;
9834;SDS011;4956;50.996;13.716;2023-02-28T11:36:56;13.80;;;8.55;;
9834;SDS011;4956;50.996;13.716;2023-02-28T11:40:19;16.27;;;8.88;;
9834;SDS011;4956;50.996;13.716;2023-02-28T11:43:50;13.60;;;7.97;;
9834;SDS011;4956;50.996;13.716;2023-02-28T11:47:20;12.60;;;8.20;;
9834;SDS011;4956;50.996;13.716;2023-02-28T11:54:50;13.10;;;7.72;;
9834;SDS011;4956;50.996;13.716;2023-02-28T12:02:04;13.48;;;8.43;;
9834;SDS011;4956;50.996;13.716;2023-02-28T12:12:44;12.10;;;8.25;;
9834;SDS011;4956;50.996;13.716;2023-02-28T12:16:14;13.00;;;7.82;;
9834;SDS011;4956;50.996;13.716;2023-02-28T12:27:19;13.45;;;8.32;;
9834;SDS011;4956;50.996;13.716;2023-02-28T12:30:56;11.93;;;7.47;;
9834;SDS011;4956;50.996;13.716;2023-02-28T12:34:20;11.90;;;7.80;;
9834;SDS011;4956;50.996;13.716;2023-02-28T12:37:48;11.35;;;7.95;;
9834;SDS011;4956;50.996;13.716;2023-02-28T12:41:14;11.55;;;8.00;;
9834;SDS011;4956;50.996;13.716;2023-02-28T12:44:42;13.65;;;8.80;;
9834;SDS011;4956;50.996;13.716;2023-02-28T12:48:06;16.25;;;9.25;;
9834;SDS011;4956;50.996;13.716;2023-02-28T12:51:28;14.70;;;8.52;;
9834;SDS011;4956;50.996;13.716;2023-02-28T12:54:51;13.00;;;7.97;;
9834;SDS011;4956;50.996;13.716;2023-02-28T12:58:20;10.85;;;7.43;;
9834;SDS011;4956;50.996;13.716;2023-02-28T13:05:29;15.00;;;8.93;;
9834;SDS011;4956;50.996;13.716;2023-02-28T13:12:19;14.18;;;8.77;;
9834;SDS011;4956;50.996;13.716;2023-02-28T13:15:40;12.70;;;8.70;;
9834;SDS011;4956;50.996;13.716;2023-02-28T13:19:09;13.43;;;8.57;;
9834;SDS011;4956;50.996;13.716;2023-02-28T13:22:38;16.83;;;8.60;;
9834;SDS011;4956;50.996;13.716;2023-02-28T13:26:02;12.35;;;8.45;;
9834;SDS011;4956;50.996;13.716;2023-02-28T13:29:30;13.48;;;8.55;;
9834;SDS011;4956;50.996;13.716;2023-02-28T13:36:47;13.93;;;9.25;;
9834;SDS011;4956;50.996;13.716;2023-02-28T13:47:20;16.45;;;10.15;;
9834;SDS011;4956;50.996;13.716;2023-02-28T13:50:44;19.33;;;10.25;;
9834;SDS011;4956;50.996;13.716;2023-02-28T13:54:07;16.85;;;10.55;;
9834;SDS011;4956;50.996;13.716;2023-02-28T14:01:49;19.75;;;10.77;;
9834;SDS011;4956;50.996;13.716;2023-02-28T14:05:21;18.77;;;9.98;;
9834;SDS011;4956;50.996;13.716;2023-02-28T14:16:20;16.60;;;10.07;;
9834;SDS011;4956;50.996;13.716;2023-02-28T14:19:44;16.00;;;10.13;;
9834;SDS011;4956;50.996;13.716;2023-02-28T14:30:36;15.25;;;9.65;;
9834;SDS011;4956;50.996;13.716;2023-02-28T14:34:12;16.63;;;10.52;;
9834;SDS011;4956;50.996;13.716;2023-02-28T14:37:40;17.60;;;10.23;;
9834;SDS011;4956;50.996;13.716;2023-02-28T14:41:03;16.40;;;9.95;;
9834;SDS011;4956;50.996;13.716;2023-02-28T14:44:26;17.55;;;10.10;;
9834;SDS011;4956;50.996;13.716;2023-02-28T14:47:48;17.33;;;10.15;;
9834;SDS011;4956;50.996;13.716;2023-02-28T14:51:09;16.52;;;10.43;;
9834;SDS011;4956;50.996;13.716;2023-02-28T14:54:29;16.38;;;10.95;;
9834;SDS011;4956;50.996;13.716;2023-02-28T14:57:57;17.35;;;11.73;;
9834;SDS011;4956;50.996;13.716;2023-02-28T15:01:19;21.10;;;11.00;;
9834;SDS011;4956;50.996;13.716;2023-02-28T15:04:42;15.30;;;9.93;;
9834;SDS011;4956;50.996;13.716;2023-02-28T15:08:10;17.67;;;11.23;;
9834;SDS011;4956;50.996;13.716;2023-02-28T15:11:35;17.90;;;10.88;;
9834;SDS011;4956;50.996;13.716;2023-02-28T15:14:55;18.08;;;11.07;;
9834;SDS011;4956;50.996;13.716;2023-02-28T15:18:21;18.25;;;11.32;;
9834;SDS011;4956;50.996;13.716;2023-02-28T15:21:43;17.15;;;11.13;;
9834;SDS011;4956;50.996;13.716;2023-02-28T15:25:05;17.13;;;10.68;;
9834;SDS011;4956;50.996;13.716;2023-02-28T15:28:28;18.00;;;11.07;;
9834;SDS011;4956;50.996;13.716;2023-02-28T15:31:49;16.48;;;10.73;;
9834;SDS011;4956;50.996;13.716;2023-02-28T15:35:19;17.92;;;10.95;;
9834;SDS011;4956;50.996;13.716;2023-02-28T15:38:40;17.77;;;11.13;;
9834;SDS011;4956;50.996;13.716;2023-02-28T15:42:11;18.33;;;10.85;;
9834;SDS011;4956;50.996;13.716;2023-02-28T15:49:01;19.52;;;12.07;;
9834;SDS011;4956;50.996;13.716;2023-02-28T15:52:27;17.83;;;11.40;;
9834;SDS011;4956;50.996;13.716;2023-02-28T15:55:52;19.77;;;11.88;;
9834;SDS011;4956;50.996;13.716;2023-02-28T15:59:15;20.55;;;12.20;;
9834;SDS011;4956;50.996;13.716;2023-02-28T16:02:38;20.83;;;12.20;;
9834;SDS011;4956;50.996;13.716;2023-02-28T16:06:09;18.83;;;12.02;;
9834;SDS011;4956;50.996;13.716;2023-02-28T16:09:40;17.88;;;11.63;;
9834;SDS011;4956;50.996;13.716;2023-02-28T16:13:02;22.25;;;13.25;;
9834;SDS011;4956;50.996;13.716;2023-02-28T16:16:23;21.20;;;12.63;;
9834;SDS011;4956;50.996;13.716;2023-02-28T16:19:44;20.42;;;13.02;;
9834;SDS011;4956;50.996;13.716;2023-02-28T16:23:04;22.25;;;12.82;;
9834;SDS011;4956;50.996;13.716;2023-02-28T16:26:25;21.85;;;13.40;;
9834;SDS011;4956;50.996;13.716;2023-02-28T16:29:47;18.08;;;12.55;;
9834;SDS011;4956;50.996;13.716;2023-02-28T16:33:08;19.75;;;12.27;;
9834;SDS011;4956;50.996;13.716;2023-02-28T16:36:29;20.20;;;12.48;;
9834;SDS011;4956;50.996;13.716;2023-02-28T16:39:50;25.08;;;14.07;;
9834;SDS011;4956;50.996;13.716;2023-02-28T16:43:15;28.92;;;15.60;;
9834;SDS011;4956;50.996;13.716;2023-02-28T16:46:37;26.73;;;15.27;;
9834;SDS011;4956;50.996;13.716;2023-02-28T16:49:57;26.73;;;14.80;;
9834;SDS011;4956;50.996;13.716;2023-02-28T16:53:18;25.30;;;15.23;;
9834;SDS011;4956;50.996;13.716;2023-02-28T16:56:39;32.63;;;15.10;;
9834;SDS011;4956;50.996;13.716;2023-02-28T17:00:03;24.17;;;14.85;;
9834;SDS011;4956;50.996;13.716;2023-02-28T17:03:27;21.75;;;13.73;;
9834;SDS011;4956;50.996;13.716;2023-02-28T17:06:48;22.15;;;14.73;;
9834;SDS011;4956;50.996;13.716;2023-02-28T17:10:11;26.77;;;16.85;;
9834;SDS011;4956;50.996;13.716;2023-02-28T17:13:33;24.38;;;15.60;;
9834;SDS011;4956;50.996;13.716;2023-02-28T17:16:54;23.10;;;15.00;;
9834;SDS011;4956;50.996;13.716;2023-02-28T17:20:15;19.63;;;13.65;;
9834;SDS011;4956;50.996;13.716;2023-02-28T17:23:37;23.50;;;13.73;;
9834;SDS011;4956;50.996;13.716;2023-02-28T17:26:58;23.85;;;14.77;;
9834;SDS011;4956;50.996;13.716;2023-02-28T17:30:19;22.88;;;14.45;;
9834;SDS011;4956;50.996;13.716;2023-02-28T17:33:41;25.40;;;15.02;;
9834;SDS011;4956;50.996;13.716;2023-02-28T17:37:01;23.30;;;14.15;;
9834;SDS011;4956;50.996;13.716;2023-02-28T17:40:22;23.38;;;15.13;;
9834;SDS011;4956;50.996;13.716;2023-02-28T17:43:43;22.42;;;13.57;;
9834;SDS011;4956;50.996;13.716;2023-02-28T17:47:03;19.48;;;13.27;;
9834;SDS011;4956;50.996;13.716;2023-02-28T17:50:24;20.13;;;13.25;;
9834;SDS011;4956;50.996;13.716;2023-02-28T17:53:44;21.20;;;13.13;;
9834;SDS011;4956;50.996;13.716;2023-02-28T17:57:04;22.95;;;14.95;;
9834;SDS011;4956;50.996;13.716;2023-02-28T18:00:25;24.00;;;14.45;;
9834;SDS011;4956;50.996;13.716;2023-02-28T18:03:46;24.45;;;15.27;;
9834;SDS011;4956;50.996;13.716;2023-02-28T18:07:09;28.15;;;16.58;;
9834;SDS011;4956;50.996;13.716;2023-02-28T18:10:30;28.48;;;17.67;;
9834;SDS011;4956;50.996;13.716;2023-02-28T18:13:53;31.83;;;19.10;;
9834;SDS011;4956;50.996;13.716;2023-02-28T18:17:15;27.40;;;16.92;;
9834;SDS011;4956;50.996;13.716;2023-02-28T18:20:36;28.05;;;16.77;;
9834;SDS011;4956;50.996;13.716;2023-02-28T18:23:56;25.77;;;15.93;;
9834;SDS011;4956;50.996;13.716;2023-02-28T18:27:16;24.60;;;14.18;;
9834;SDS011;4956;50.996;13.716;2023-02-28T18:30:37;21.80;;;13.13;;
9834;SDS011;4956;50.996;13.716;2023-02-28T18:33:57;21.38;;;13.27;;
9834;SDS011;4956;50.996;13.716;2023-02-28T18:37:18;24.45;;;14.05;;
9834;SDS011;4956;50.996;13.716;2023-02-28T18:40:38;25.05;;;15.15;;
9834;SDS011;4956;50.996;13.716;2023-02-28T18:43:59;25.92;;;16.23;;
9834;SDS011;4956;50.996;13.716;2023-02-28T18:47:21;27.58;;;16.65;;
9834;SDS011;4956;50.996;13.716;2023-02-28T18:50:41;24.42;;;15.57;;
9834;SDS011;4956;50.996;13.716;2023-02-28T18:54:02;20.73;;;13.25;;
9834;SDS011;4956;50.996;13.716;2023-02-28T18:57:23;21.77;;;13.20;;
9834;SDS011;4956;50.996;13.716;2023-02-28T19:00:46;20.77;;;13.20;;
9834;SDS011;4956;50.996;13.716;2023-02-28T19:04:06;20.83;;;13.27;;
9834;SDS011;4956;50.996;13.716;2023-02-28T19:07:29;21.58;;;12.10;;
9834;SDS011;4956;50.996;13.716;2023-02-28T19:10:49;19.20;;;11.73;;
9834;SDS011;4956;50.996;13.716;2023-02-28T19:14:10;19.27;;;12.35;;
9834;SDS011;4956;50.996;13.716;2023-02-28T19:17:31;20.13;;;12.00;;
9834;SDS011;4956;50.996;13.716;2023-02-28T19:20:52;20.40;;;13.02;;
9834;SDS011;4956;50.996;13.716;2023-02-28T19:24:12;23.55;;;13.82;;
9834;SDS011;4956;50.996;13.716;2023-02-28T19:27:32;22.08;;;14.18;;
9834;SDS011;4956;50.996;13.716;2023-02-28T19:30:53;24.60;;;14.95;;
9834;SDS011;4956;50.996;13.716;2023-02-28T19:34:13;24.90;;;14.40;;
9834;SDS011;4956;50.996;13.716;2023-02-28T19:37:36;25.88;;;15.98;;
9834;SDS011;4956;50.996;13.716;2023-02-28T19:41:00;29.83;;;16.42;;
9834;SDS011;4956;50.996;13.716;2023-02-28T19:44:22;37.25;;;22.48;;
9834;SDS011;4956;50.996;13.716;2023-02-28T19:47:42;27.52;;;16.88;;
9834;SDS011;4956;50.996;13.716;2023-02-28T19:51:07;24.23;;;15.70;;
9834;SDS011;4956;50.996;13.716;2023-02-28T19:54:29;23.67;;;14.48;;
9834;SDS011;4956;50.996;13.716;2023-02-28T19:57:49;26.00;;;16.15;;
9834;SDS011;4956;50.996;13.716;2023-02-28T20:01:14;26.88;;;16.33;;
9834;SDS011;4956;50.996;13.716;2023-02-28T20:04:36;27.35;;;16.55;;
9834;SDS011;4956;50.996;13.716;2023-02-28T20:07:56;27.17;;;15.32;;
9834;SDS011;4956;50.996;13.716;2023-02-28T20:11:16;27.45;;;15.25;;
9834;SDS011;4956;50.996;13.716;2023-02-28T20:14:36;21.67;;;14.02;;
9834;SDS011;4956;50.996;13.716;2023-02-28T20:17:57;24.73;;;15.05;;
9834;SDS011;4956;50.996;13.716;2023-02-28T20:21:19;28.15;;;15.23;;
9834;SDS011;4956;50.996;13.716;2023-02-28T20:24:39;25.05;;;15.20;;
9834;SDS011;4956;50.996;13.716;2023-02-28T20:27:59;25.98;;;15.13;;
9834;SDS011;4956;50.996;13.716;2023-02-28T20:31:21;27.85;;;16.50;;
9834;SDS011;4956;50.996;13.716;2023-02-28T20:34:42;29.50;;;17.23;;
9834;SDS011;4956;50.996;13.716;2023-02-28T20:38:03;30.98;;;17.13;;
9834;SDS011;4956;50.996;13.716;2023-02-28T20:41:23;32.03;;;18.02;;
9834;SDS011;4956;50.996;13.716;2023-02-28T20:44:43;32.00;;;17.60;;
9834;SDS011;4956;50.996;13.716;2023-02-28T20:48:04;34.58;;;18.52;;
9834;SDS011;4956;50.996;13.716;2023-02-28T20:51:24;31.17;;;18.30;;
9834;SDS011;4956;50.996;13.716;2023-02-28T20:54:45;28.52;;;17.23;;
9834;SDS011;4956;50.996;13.716;2023-02-28T20:58:05;31.50;;;17.75;;
9834;SDS011;4956;50.996;13.716;2023-02-28T21:01:27;31.10;;;17.88;;
9834;SDS011;4956;50.996;13.716;2023-02-28T21:04:48;31.77;;;17.25;;
9834;SDS011;4956;50.996;13.716;2023-02-28T21:08:08;32.25;;;18.17;;
9834;SDS011;4956;50.996;13.716;2023-02-28T21:11:29;30.33;;;17.95;;
9834;SDS011;4956;50.996;13.716;2023-02-28T21:14:51;30.67;;;18.55;;
9834;SDS011;4956;50.996;13.716;2023-02-28T21:18:11;29.38;;;17.95;;
9834;SDS011;4956;50.996;13.716;2023-02-28T21:21:39;30.48;;;17.85;;
9834;SDS011;4956;50.996;13.716;2023-02-28T21:25:02;31.95;;;18.33;;
9834;SDS011;4956;50.996;13.716;2023-02-28T21:28:23;32.50;;;18.83;;
9834;SDS011;4956;50.996;13.716;2023-02-28T21:31:43;31.48;;;18.95;;
9834;SDS011;4956;50.996;13.716;2023-02-28T21:35:04;37.72;;;20.60;;
9834;SDS011;4956;50.996;13.716;2023-02-28T21:38:25;32.58;;;19.83;;
9834;SDS011;4956;50.996;13.716;2023-02-28T21:41:45;34.42;;;18.88;;
9834;SDS011;4956;50.996;13.716;2023-02-28T21:45:06;33.40;;;19.27;;
9834;SDS011;4956;50.996;13.716;2023-02-28T21:48:27;30.17;;;18.70;;
9834;SDS011;4956;50.996;13.716;2023-02-28T21:51:47;30.15;;;17.83;;